Time;durP1;ratioP1;P1;durP2;ratioP2;P2;SDS_P1;SDS_P2;PMS_P1;PMS_P2;Temp;Humidity;BMP_temperature;BMP_pressure;BME280_temperature;BME280_humidity;BME280_pressure;Samples;Min_cycle;Max_cycle;Signal;HPM_P1;HPM_P2
2021/04/13 00:01:26;;;;;;;10.82;7.70;;;;;;;2.91;100.00;97328.88;5035430;28;20493;-54
2021/04/13 00:04:01;;;;;;;9.20;7.57;;;;;;;2.61;100.00;97331.22;5025424;28;20592;-55
2021/04/13 00:06:31;;;;;;;10.00;7.55;;;;;;;2.93;100.00;97334.88;5030262;28;20084;-56
2021/04/13 00:09:07;;;;;;;8.55;7.00;;;;;;;2.74;100.00;97336.69;5032931;28;20786;-52
2021/04/13 00:11:35;;;;;;;9.27;7.40;;;;;;;2.95;100.00;97335.63;5032467;28;20405;-56
2021/04/13 00:14:05;;;;;;;9.90;7.70;;;;;;;2.79;100.00;97335.56;5024168;28;20068;-56
2021/04/13 00:16:34;;;;;;;9.45;7.05;;;;;;;2.76;100.00;97338.31;5038019;28;20456;-56
2021/04/13 00:19:04;;;;;;;7.80;6.90;;;;;;;3.04;100.00;97342.16;5030543;28;20080;-54
2021/04/13 00:21:34;;;;;;;9.38;7.28;;;;;;;2.85;100.00;97345.66;5031921;28;20084;-53
2021/04/13 00:24:05;;;;;;;9.43;7.28;;;;;;;2.66;100.00;97342.28;5026670;28;20065;-51
2021/04/13 00:26:33;;;;;;;;;;;;;;;2.97;100.00;97338.16;5037303;28;20553;-51
2021/04/13 00:29:02;;;;;;;8.88;6.97;;;;;;;2.84;100.00;97337.94;5023441;28;19983;-50
2021/04/13 00:31:42;;;;;;;8.05;7.25;;;;;;;2.71;100.00;97340.28;5036246;28;20073;-50
2021/04/13 00:34:14;;;;;;;8.10;7.22;;;;;;;2.79;100.00;97339.94;5031883;28;20060;-50
2021/04/13 00:36:42;;;;;;;;;;;;;;;2.69;100.00;97336.91;5028980;28;20088;-48
2021/04/13 00:39:16;;;;;;;7.97;7.18;;;;;;;2.82;100.00;97343.22;5029667;28;19963;-52
2021/04/13 00:41:47;;;;;;;9.50;6.72;;;;;;;2.64;100.00;97333.69;5038125;28;20447;-49
2021/04/13 00:44:16;;;;;;;8.48;7.10;;;;;;;2.55;100.00;97340.19;5021293;28;20072;-50
2021/04/13 00:46:47;;;;;;;9.05;6.88;;;;;;;2.59;100.00;97340.88;5038244;28;20077;-52
2021/04/13 00:49:18;;;;;;;8.25;6.38;;;;;;;2.70;100.00;97341.19;5024392;28;20065;-50
2021/04/13 00:51:48;;;;;;;8.40;6.95;;;;;;;2.66;100.00;97338.84;5021634;28;20042;-52
2021/04/13 00:54:22;;;;;;;7.90;6.95;;;;;;;2.38;100.00;97341.00;5031933;28;21436;-51
2021/04/13 00:56:49;;;;;;;8.00;6.63;;;;;;;2.47;100.00;97337.09;5036404;28;20065;-55
2021/04/13 00:59:19;;;;;;;8.25;7.07;;;;;;;2.32;100.00;97341.28;5025279;28;20605;-49
2021/04/13 01:01:51;;;;;;;8.52;7.00;;;;;;;2.31;100.00;97342.19;5041720;28;20080;-53
2021/04/13 01:04:21;;;;;;;7.82;7.03;;;;;;;2.48;100.00;97345.75;5035977;28;20550;-51
2021/04/13 01:06:59;;;;;;;10.73;7.28;;;;;;;2.46;100.00;97345.81;5030468;28;20473;-50
2021/04/13 01:09:28;;;;;;;8.07;6.75;;;;;;;2.35;100.00;97345.50;5041158;28;20084;-49
2021/04/13 01:11:58;;;;;;;8.82;7.00;;;;;;;2.58;100.00;97344.38;5043444;28;20061;-53
2021/04/13 01:14:27;;;;;;;8.63;7.35;;;;;;;2.62;100.00;97340.75;5024437;28;20076;-53
2021/04/13 01:16:58;;;;;;;12.55;8.30;;;;;;;2.63;100.00;97357.22;5036074;28;20068;-53
2021/04/13 01:19:34;;;;;;;8.95;7.32;;;;;;;2.31;100.00;97352.63;5033263;28;20458;-56
2021/04/13 01:22:10;;;;;;;8.07;6.88;;;;;;;2.52;100.00;97350.75;5028056;28;20153;-56
2021/04/13 01:24:45;;;;;;;7.43;6.50;;;;;;;2.62;100.00;97345.94;5040646;28;20321;-47
2021/04/13 01:27:13;;;;;;;8.30;7.30;;;;;;;2.32;100.00;97353.44;5043141;28;21470;-51
2021/04/13 01:29:42;;;;;;;9.05;7.00;;;;;;;2.44;100.00;97358.06;5031475;28;20067;-53
2021/04/13 01:32:11;;;;;;;8.65;7.70;;;;;;;2.68;100.00;97350.00;5027722;28;20076;-55
2021/04/13 01:34:55;;;;;;;9.00;7.13;;;;;;;2.64;100.00;97354.50;5041415;28;20075;-54
2021/04/13 01:37:32;;;;;;;9.48;7.22;;;;;;;2.48;100.00;97350.94;5019644;28;20467;-52
2021/04/13 01:40:04;;;;;;;9.55;7.15;;;;;;;2.73;100.00;97346.25;5031849;28;20079;-52
2021/04/13 01:42:33;;;;;;;8.23;7.30;;;;;;;2.63;100.00;97357.22;5036908;28;20588;-51
2021/04/13 01:45:04;;;;;;;7.93;6.70;;;;;;;2.69;100.00;97349.94;5031547;28;20048;-51
2021/04/13 01:47:33;;;;;;;8.25;7.40;;;;;;;2.58;100.00;97344.38;5027302;28;20503;-51
2021/04/13 01:50:04;;;;;;;8.35;7.20;;;;;;;2.63;100.00;97347.63;5022977;28;20060;-53
2021/04/13 01:52:32;;;;;;;;;;;;;;;2.55;100.00;97340.19;5020645;28;20069;-51
2021/04/13 01:55:00;;;;;;;7.47;6.70;;;;;;;2.79;100.00;97340.75;5015890;28;19965;-49
2021/04/13 01:57:31;;;;;;;9.90;7.57;;;;;;;2.43;100.00;97345.97;5041093;28;20065;-48
2021/04/13 02:00:09;;;;;;;9.13;7.63;;;;;;;2.54;100.00;97343.69;5032345;28;20063;-52
2021/04/13 02:02:44;;;;;;;11.57;7.97;;;;;;;2.60;100.00;97345.16;5030059;28;20458;-48
2021/04/13 02:05:14;;;;;;;8.27;7.47;;;;;;;2.53;100.00;97347.22;5039645;28;20061;-51
2021/04/13 02:07:53;;;;;;;9.45;7.80;;;;;;;2.55;100.00;97339.34;5022057;28;20068;-50
2021/04/13 02:10:26;;;;;;;8.75;7.85;;;;;;;2.65;100.00;97344.94;5026462;28;20060;-53
2021/04/13 02:12:56;;;;;;;10.57;7.63;;;;;;;2.56;100.00;97339.25;5032665;28;20089;-48
2021/04/13 02:15:33;;;;;;;8.75;7.85;;;;;;;2.34;100.00;97335.97;5030925;28;20073;-52
2021/04/13 02:18:04;;;;;;;9.95;7.97;;;;;;;2.50;100.00;97341.31;5020339;28;20073;-56
2021/04/13 02:20:35;;;;;;;9.30;8.05;;;;;;;2.38;100.00;97334.94;5030196;28;20609;-50
2021/04/13 02:23:04;;;;;;;;;;;;;;;2.19;100.00;97331.50;5028954;28;20068;-53
2021/04/13 02:25:33;;;;;;;8.65;7.22;;;;;;;2.25;100.00;97336.44;5030958;28;19964;-53
2021/04/13 02:28:03;;;;;;;8.68;7.53;;;;;;;2.11;100.00;97335.31;5030462;28;20100;-52
2021/04/13 02:30:33;;;;;;;8.55;7.65;;;;;;;2.28;100.00;97339.75;5026740;28;20630;-52
2021/04/13 02:33:27;;;;;;;9.80;7.93;;;;;;;1.95;100.00;97333.47;5025187;28;20059;-51
2021/04/13 02:35:55;;;;;;;9.15;7.50;;;;;;;2.01;100.00;97352.25;5025455;28;20069;-53
2021/04/13 02:38:25;;;;;;;8.55;6.97;;;;;;;1.99;100.00;97337.63;5023371;28;20065;-51
2021/04/13 02:40:58;;;;;;;9.10;8.15;;;;;;;2.07;100.00;97338.97;5026834;28;20083;-53
2021/04/13 02:43:29;;;;;;;8.43;7.40;;;;;;;1.95;100.00;97334.31;5035210;28;20100;-48
2021/04/13 02:46:01;;;;;;;10.32;7.65;;;;;;;1.83;100.00;97342.69;5029886;28;20077;-51
2021/04/13 02:48:32;;;;;;;10.15;8.52;;;;;;;2.19;100.00;97331.50;5027703;28;20147;-54
2021/04/13 02:51:04;;;;;;;10.55;8.45;;;;;;;1.99;100.00;97330.66;5030178;28;20172;-47
2021/04/13 02:53:36;;;;;;;10.93;8.25;;;;;;;2.18;100.00;97327.22;5026067;28;20515;-50
2021/04/13 02:56:07;;;;;;;10.73;8.90;;;;;;;2.16;100.00;97331.66;5027340;28;20769;-49
2021/04/13 02:58:39;;;;;;;10.73;8.73;;;;;;;2.04;100.00;97333.06;5034874;28;20120;-48
2021/04/13 03:01:06;;;;;;;11.18;9.05;;;;;;;2.23;100.00;97339.09;5021947;28;20092;-50
2021/04/13 03:03:37;;;;;;;11.18;8.25;;;;;;;2.22;100.00;97333.97;5028859;28;20084;-51
2021/04/13 03:06:04;;;;;;;;;;;;;;;2.19;100.00;97336.72;5025185;28;20073;-55
2021/04/13 03:08:37;;;;;;;11.85;8.95;;;;;;;2.03;100.00;97331.38;5027924;28;19956;-49
2021/04/13 03:11:14;;;;;;;9.68;8.68;;;;;;;2.18;100.00;97329.84;5025045;28;20441;-53
2021/04/13 03:13:43;;;;;;;10.30;8.80;;;;;;;2.49;100.00;97340.47;5038803;28;20075;-55
2021/04/13 03:16:11;;;;;;;9.50;8.50;;;;;;;2.27;100.00;97337.19;5020038;28;20072;-54
2021/04/13 03:18:42;;;;;;;13.73;9.10;;;;;;;2.44;100.00;97334.63;5027026;28;20072;-48
2021/04/13 03:21:14;;;;;;;12.48;9.13;;;;;;;2.59;100.00;97333.91;5033548;28;20069;-48
2021/04/13 03:23:43;;;;;;;9.75;8.73;;;;;;;2.43;100.00;97327.75;5026682;28;20064;-47
2021/04/13 03:26:14;;;;;;;11.15;8.68;;;;;;;2.29;100.00;97328.41;5026253;28;20165;-48
2021/04/13 03:28:44;;;;;;;10.27;9.02;;;;;;;2.28;100.00;97334.53;5034026;28;20080;-49
2021/04/13 03:31:13;;;;;;;11.00;9.23;;;;;;;2.50;100.00;97320.50;5019626;28;20072;-53
2021/04/13 03:33:42;;;;;;;10.55;9.20;;;;;;;2.41;100.00;97324.41;5015502;28;20077;-51
2021/04/13 03:36:13;;;;;;;10.02;8.65;;;;;;;2.42;100.00;97325.22;5030432;28;20072;-49
2021/04/13 03:38:42;;;;;;;10.55;8.65;;;;;;;2.65;100.00;97318.91;5019434;28;20068;-48
2021/04/13 03:41:14;;;;;;;9.52;8.38;;;;;;;2.46;100.00;97325.00;5026096;28;20069;-51
2021/04/13 03:43:41;;;;;;;10.65;9.50;;;;;;;2.61;100.00;97324.28;5035086;28;20072;-48
2021/04/13 03:46:11;;;;;;;10.93;9.30;;;;;;;2.38;100.00;97321.94;5023491;28;20116;-51
2021/04/13 03:48:43;;;;;;;11.18;9.00;;;;;;;2.50;100.00;97328.31;5028152;28;20091;-49
2021/04/13 03:51:13;;;;;;;11.65;9.50;;;;;;;2.36;100.00;97315.94;5022137;28;20065;-49
2021/04/13 03:53:43;;;;;;;12.00;10.25;;;;;;;2.46;100.00;97325.00;5018228;28;20098;-51
2021/04/13 03:56:12;;;;;;;13.73;9.97;;;;;;;2.59;100.00;97320.91;5025182;28;20068;-49
2021/04/13 03:58:41;;;;;;;10.82;9.20;;;;;;;2.76;100.00;97317.47;5035590;28;20479;-49
2021/04/13 04:01:12;;;;;;;12.10;10.02;;;;;;;3.07;100.00;97321.16;5025480;28;20065;-50
2021/04/13 04:03:43;;;;;;;9.93;8.93;;;;;;;2.98;100.00;97325.06;5026476;28;20081;-47
2021/04/13 04:06:16;;;;;;;10.00;8.90;;;;;;;3.00;100.00;97325.00;5029295;28;20053;-51
2021/04/13 04:08:48;;;;;;;10.55;9.45;;;;;;;3.29;100.00;97320.91;5018900;28;20061;-51
2021/04/13 04:11:16;;;;;;;11.60;9.43;;;;;;;3.03;100.00;97328.28;5034541;28;20072;-48
2021/04/13 04:13:47;;;;;;;9.65;8.52;;;;;;;2.90;100.00;97332.41;5022363;28;20076;-50
2021/04/13 04:16:19;;;;;;;10.85;8.93;;;;;;;2.96;100.00;97328.66;5025984;28;20073;-53
2021/04/13 04:18:48;;;;;;;10.48;8.45;;;;;;;2.77;100.00;97329.56;5029571;28;20077;-48
2021/04/13 04:21:32;;;;;;;10.43;9.20;;;;;;;2.64;100.00;97330.25;5035312;28;20472;-50
2021/04/13 04:24:05;;;;;;;10.10;8.88;;;;;;;2.53;100.00;97334.19;5016763;28;20589;-49
2021/04/13 04:26:36;;;;;;;10.20;9.05;;;;;;;2.72;100.00;97326.34;5035501;28;20064;-48
2021/04/13 04:29:23;;;;;;;10.30;9.10;;;;;;;2.75;100.00;97322.75;5024573;28;20541;-47
2021/04/13 04:31:51;;;;;;;10.30;9.20;;;;;;;2.54;100.00;97324.63;5024248;28;20083;-50
2021/04/13 04:34:41;;;;;;;11.88;9.60;;;;;;;2.46;100.00;97332.81;5031893;28;20107;-48
2021/04/13 04:37:26;;;;;;;10.80;9.03;;;;;;;2.32;100.00;97335.22;5035783;28;20064;-47
2021/04/13 04:40:37;;;;;;;10.25;8.80;;;;;;;2.46;100.00;97330.22;5029528;28;20550;-51
2021/04/13 04:43:57;;;;;;;11.05;9.38;;;;;;;2.40;100.00;97340.91;5016279;28;20513;-50
2021/04/13 04:46:36;;;;;;;12.35;9.45;;;;;;;2.40;100.00;97346.13;5028539;28;20092;-52
2021/04/13 04:49:05;;;;;;;13.70;9.48;;;;;;;2.46;100.00;97343.22;5028374;28;20588;-53
2021/04/13 04:51:35;;;;;;;12.27;10.45;;;;;;;2.78;100.00;97340.81;5032894;28;20091;-54
2021/04/13 04:54:05;;;;;;;12.02;10.13;;;;;;;2.66;100.00;97342.28;5020990;28;20432;-56
2021/04/13 04:56:33;;;;;;;13.13;9.63;;;;;;;2.66;100.00;97344.88;5035048;28;20081;-56
2021/04/13 04:59:01;;;;;;;11.88;10.18;;;;;;;2.77;100.00;97347.78;5031937;28;20534;-55
2021/04/13 05:01:28;;;;;;;11.90;10.32;;;;;;;2.93;100.00;97352.28;5025145;28;20072;-50
2021/04/13 05:03:57;;;;;;;12.55;10.45;;;;;;;3.08;100.00;97354.94;5024529;28;20467;-54
2021/04/13 05:06:24;;;;;;;15.23;11.02;;;;;;;3.19;100.00;97356.16;5038237;28;20079;-51
2021/04/13 05:08:54;;;;;;;15.68;11.50;;;;;;;2.61;100.00;97354.66;5025315;28;20062;-49
2021/04/13 05:11:23;;;;;;;12.45;10.75;;;;;;;2.64;100.00;97356.28;5038075;28;20073;-54
2021/04/13 05:13:53;;;;;;;12.73;10.97;;;;;;;2.98;100.00;97356.31;5025151;28;20065;-47
2021/04/13 05:16:21;;;;;;;13.45;11.13;;;;;;;2.64;100.00;97364.09;5024645;28;20076;-51
2021/04/13 05:18:48;;;;;;;13.10;11.57;;;;;;;2.82;100.00;97360.59;5026973;28;20076;-51
2021/04/13 05:21:17;;;;;;;14.75;11.00;;;;;;;2.90;100.00;97361.06;5037671;28;20079;-50
2021/04/13 05:23:44;;;;;;;15.43;11.25;;;;;;;3.12;100.00;97357.41;5029410;28;20504;-49
2021/04/13 05:26:12;;;;;;;15.30;11.73;;;;;;;2.96;100.00;97367.72;5038493;28;20064;-50
2021/04/13 05:28:40;;;;;;;14.45;12.80;;;;;;;3.06;100.00;97372.44;5028003;28;20550;-53
2021/04/13 05:31:08;;;;;;;15.65;11.60;;;;;;;2.93;100.00;97376.56;5026643;28;20065;-54
2021/04/13 05:33:35;;;;;;;13.80;11.57;;;;;;;3.40;100.00;97373.31;5038309;28;20077;-49
2021/04/13 05:36:04;;;;;;;16.70;12.13;;;;;;;3.45;100.00;97378.31;5025616;28;20072;-48
2021/04/13 05:38:33;;;;;;;15.02;12.18;;;;;;;3.65;100.00;97372.06;5032028;28;20072;-54
2021/04/13 05:41:00;;;;;;;14.90;11.93;;;;;;;3.65;100.00;97374.66;5033037;28;20092;-50
2021/04/13 05:43:28;;;;;;;15.35;12.05;;;;;;;4.11;100.00;97359.22;5028330;28;20609;-48
2021/04/13 05:45:59;;;;;;;16.10;12.07;;;;;;;3.70;100.00;97370.91;5033123;28;20140;-49
2021/04/13 05:48:27;;;;;;;;;;;;;;;4.11;100.00;97373.09;5042181;28;20081;-47
2021/04/13 05:50:54;;;;;;;18.50;11.50;;;;;;;4.33;100.00;97364.09;5025884;28;19967;-50
2021/04/13 05:53:22;;;;;;;14.20;11.82;;;;;;;4.82;100.00;97369.22;5034551;28;20074;-49
2021/04/13 05:55:50;;;;;;;16.55;11.35;;;;;;;4.85;100.00;97374.28;5037599;28;20072;-51
2021/04/13 05:58:20;;;;;;;13.88;11.75;;;;;;;4.51;100.00;97369.19;5027961;28;20129;-48
2021/04/13 06:00:49;;;;;;;12.98;11.57;;;;;;;4.70;100.00;97362.91;5042015;28;20084;-49
2021/04/13 06:03:20;;;;;;;14.10;11.23;;;;;;;4.92;100.00;97368.63;5030715;28;20549;-54
2021/04/13 06:05:48;;;;;;;13.85;11.43;;;;;;;4.68;100.00;97373.47;5023091;28;20049;-53
2021/04/13 06:08:16;;;;;;;12.93;11.52;;;;;;;4.73;100.00;97375.81;5034585;28;20487;-51
2021/04/13 06:10:44;;;;;;;13.27;10.93;;;;;;;4.48;100.00;97371.97;5028223;28;20065;-55
2021/04/13 06:13:12;;;;;;;13.18;10.88;;;;;;;4.63;100.00;97372.03;5030958;28;20076;-53
2021/04/13 06:15:39;;;;;;;13.40;11.55;;;;;;;4.29;100.00;97385.16;5031123;28;20091;-54
2021/04/13 06:18:07;;;;;;;18.33;11.93;;;;;;;4.41;100.00;97382.84;5031750;28;20068;-50
2021/04/13 06:20:35;;;;;;;13.25;11.30;;;;;;;5.16;100.00;97378.59;5032934;28;20102;-52
2021/04/13 06:23:03;;;;;;;13.48;11.10;;;;;;;4.91;100.00;97377.38;5039144;28;20064;-48
2021/04/13 06:25:32;;;;;;;13.38;11.13;;;;;;;4.74;100.00;97377.50;5028349;28;20069;-48
2021/04/13 06:28:00;;;;;;;13.68;11.75;;;;;;;4.91;100.00;97380.00;5028137;28;20085;-52
2021/04/13 06:30:29;;;;;;;14.05;11.55;;;;;;;4.64;100.00;97382.38;5040938;28;20073;-55
2021/04/13 06:33:01;;;;;;;14.13;11.48;;;;;;;4.49;100.00;97394.53;5025279;28;20106;-51
2021/04/13 06:35:29;;;;;;;14.40;11.15;;;;;;;4.67;100.00;97386.59;5036250;28;20089;-46
2021/04/13 06:38:01;;;;;;;13.88;11.70;;;;;;;4.67;100.00;97378.75;5033477;28;20080;-52
2021/04/13 06:40:37;;;;;;;13.07;11.25;;;;;;;5.17;100.00;97382.91;5027069;28;20079;-48
2021/04/13 06:43:11;;;;;;;15.10;11.90;;;;;;;4.78;100.00;97389.44;5034309;28;20073;-56
2021/04/13 06:45:47;;;;;;;13.90;11.43;;;;;;;5.15;100.00;97385.59;5042727;28;20072;-53
2021/04/13 06:48:50;;;;;;;15.77;12.07;;;;;;;5.42;100.00;97377.09;5017139;28;20448;-53
2021/04/13 06:51:22;;;;;;;17.25;12.65;;;;;;;5.46;100.00;97379.41;5006327;28;20264;-50
2021/04/13 06:54:11;;;;;;;16.70;12.85;;;;;;;5.28;100.00;97379.66;5031291;28;20062;-54
2021/04/13 06:56:49;;;;;;;14.68;11.35;;;;;;;5.42;100.00;97372.69;5038628;28;20061;-49
2021/04/13 06:59:39;;;;;;;13.80;12.00;;;;;;;5.71;100.00;97376.22;5019183;28;20065;-56
2021/04/13 07:02:11;;;;;;;16.30;11.93;;;;;;;5.72;100.00;97375.25;5033916;28;20068;-53
2021/04/13 07:04:42;;;;;;;18.30;13.70;;;;;;;6.07;100.00;97371.47;5032384;28;20069;-53
2021/04/13 07:07:14;;;;;;;16.23;12.88;;;;;;;5.93;100.00;97367.09;5033371;28;20068;-53
2021/04/13 07:09:47;;;;;;;17.42;13.50;;;;;;;6.16;100.00;97369.13;5029068;28;20093;-50
2021/04/13 07:12:20;;;;;;;19.55;12.85;;;;;;;6.23;100.00;97366.13;5041231;28;20507;-48
2021/04/13 07:14:57;;;;;;;17.35;13.90;;;;;;;6.15;100.00;97366.59;5011064;28;20106;-53
2021/04/13 07:17:28;;;;;;;16.63;14.20;;;;;;;6.54;100.00;97371.13;5033608;28;20123;-52
2021/04/13 07:19:59;;;;;;;17.20;13.88;;;;;;;7.01;100.00;97364.59;5026668;28;20060;-48
2021/04/13 07:22:31;;;;;;;20.02;15.90;;;;;;;7.27;100.00;97364.69;5034963;28;20060;-49
2021/04/13 07:25:03;;;;;;;21.73;17.02;;;;;;;7.59;100.00;97363.34;5033102;28;20077;-48
2021/04/13 07:27:33;;;;;;;25.05;17.80;;;;;;;7.32;100.00;97365.19;5041947;28;20092;-49
2021/04/13 07:30:06;;;;;;;25.10;18.63;;;;;;;7.38;100.00;97367.41;5034346;28;20075;-51
2021/04/13 07:32:35;;;;;;;24.92;18.38;;;;;;;7.07;100.00;97379.09;5025800;28;20061;-51
2021/04/13 07:35:05;;;;;;;23.67;18.45;;;;;;;7.00;100.00;97368.16;5033046;28;20085;-52
2021/04/13 07:37:34;;;;;;;26.38;19.75;;;;;;;7.37;100.00;97368.38;5034034;28;20453;-57
2021/04/13 07:40:07;;;;;;;26.85;20.00;;;;;;;7.21;100.00;97368.53;5025636;28;20081;-54
2021/04/13 07:42:37;;;;;;;26.88;19.00;;;;;;;7.06;100.00;97372.19;5039266;28;20110;-51
2021/04/13 07:45:20;;;;;;;27.87;19.90;;;;;;;7.34;100.00;97376.44;5019814;28;20065;-49
2021/04/13 07:48:13;;;;;;;26.35;19.33;;;;;;;7.32;100.00;97376.53;5030232;28;20065;-56
2021/04/13 07:50:53;;;;;;;26.13;18.17;;;;;;;6.66;100.00;97375.56;5028511;28;20069;-51
2021/04/13 07:53:27;;;;;;;26.40;18.13;;;;;;;6.76;100.00;97383.69;5041400;28;20061;-48
2021/04/13 07:56:00;;;;;;;25.30;17.77;;;;;;;6.62;100.00;97383.75;5028753;28;20079;-51
2021/04/13 07:58:38;;;;;;;24.83;16.73;;;;;;;6.58;100.00;97382.25;5027866;28;20077;-55
2021/04/13 08:01:07;;;;;;;23.15;15.45;;;;;;;6.65;100.00;97383.56;5025323;28;20077;-56
2021/04/13 08:03:36;;;;;;;20.38;14.48;;;;;;;6.80;100.00;97393.03;5031133;28;20119;-49
2021/04/13 08:06:06;;;;;;;19.05;13.57;;;;;;;7.00;100.00;97385.69;5026654;28;20065;-50
2021/04/13 08:08:35;;;;;;;21.27;15.05;;;;;;;7.23;100.00;97389.44;5038367;28;20064;-53
2021/04/13 08:11:11;;;;;;;21.90;16.13;;;;;;;7.56;100.00;97386.34;5024190;28;20143;-50
2021/04/13 08:14:16;;;;;;;21.02;15.25;;;;;;;7.48;100.00;97393.91;5024755;28;20064;-52
2021/04/13 08:16:43;;;;;;;19.33;14.63;;;;;;;7.00;100.00;97393.56;5017336;28;20076;-52
2021/04/13 08:19:18;;;;;;;18.83;13.98;;;;;;;6.82;100.00;97388.56;5043238;28;20064;-50
2021/04/13 08:22:00;;;;;;;22.00;15.68;;;;;;;7.01;100.00;97384.75;5026623;28;20077;-51
2021/04/13 08:24:38;;;;;;;20.55;14.50;;;;;;;7.06;100.00;97394.00;5031906;28;20217;-52
2021/04/13 08:27:32;;;;;;;19.38;15.43;;;;;;;7.37;100.00;97389.38;5028931;28;20538;-51
2021/04/13 08:30:06;;;;;;;16.73;12.80;;;;;;;7.14;100.00;97394.31;5031069;28;20064;-55
2021/04/13 08:32:50;;;;;;;15.75;12.20;;;;;;;7.23;100.00;97389.44;5027677;28;20547;-52
2021/04/13 08:35:30;;;;;;;17.38;12.52;;;;;;;7.20;100.00;97403.59;5035756;28;20116;-56
2021/04/13 08:38:18;;;;;;;15.60;12.25;;;;;;;6.92;100.00;97398.44;5029752;28;20072;-52
2021/04/13 08:41:05;;;;;;;15.10;12.40;;;;;;;7.12;100.00;97395.38;5029145;28;20084;-47
2021/04/13 08:43:41;;;;;;;15.25;11.30;;;;;;;7.01;100.00;97398.69;5022342;28;20065;-57
2021/04/13 08:46:12;;;;;;;14.15;11.52;;;;;;;7.22;100.00;97401.69;5036314;28;20076;-45
2021/04/13 08:48:40;;;;;;;;;;;;;;;7.16;100.00;97402.13;5021262;28;20096;-54
2021/04/13 08:51:10;;;;;;;11.85;9.85;;;;;;;7.21;100.00;97401.81;5027560;28;19976;-50
2021/04/13 08:53:42;;;;;;;15.80;12.80;;;;;;;7.40;100.00;97399.66;5037834;28;20531;-54
2021/04/13 08:56:12;;;;;;;14.60;11.85;;;;;;;7.65;100.00;97401.47;5027174;28;20061;-53
2021/04/13 08:58:42;;;;;;;;;;;;;;;7.68;98.29;97403.06;5021875;28;20151;-54
2021/04/13 09:01:30;;;;;;;12.87;10.57;;;;;;;7.48;100.00;97402.59;5029973;28;19960;-52
2021/04/13 09:03:58;;;;;;;14.45;11.75;;;;;;;8.33;94.90;97395.06;5028713;28;20085;-52
2021/04/13 09:06:42;;;;;;;11.00;8.75;;;;;;;7.64;100.00;97399.81;5027614;28;20092;-57
2021/04/13 09:09:13;;;;;;;12.75;8.95;;;;;;;8.02;92.03;97396.34;5027460;28;20061;-52
2021/04/13 09:11:48;;;;;;;11.10;8.57;;;;;;;8.38;83.47;97400.03;5036915;28;20065;-57
2021/04/13 09:14:29;;;;;;;9.98;8.50;;;;;;;8.40;96.66;97404.22;5021797;28;20061;-55
2021/04/13 09:16:59;;;;;;;12.55;9.73;;;;;;;7.94;92.54;97402.09;5035806;28;20072;-54
2021/04/13 09:19:31;;;;;;;10.18;8.68;;;;;;;8.04;91.15;97413.66;5041164;28;20087;-54
2021/04/13 09:22:04;;;;;;;11.07;7.35;;;;;;;7.54;91.33;97406.63;5031895;28;20085;-54
2021/04/13 09:24:41;;;;;;;10.00;7.50;;;;;;;7.57;98.72;97416.88;5034577;28;20080;-57
2021/04/13 09:27:32;;;;;;;9.13;6.65;;;;;;;7.51;95.13;97407.66;5038223;28;20072;-54
2021/04/13 09:30:22;;;;;;;8.38;6.32;;;;;;;7.62;82.69;97406.94;5033356;28;20079;-54
2021/04/13 09:32:50;;;;;;;5.55;4.90;;;;;;;7.60;74.45;97403.56;5033619;28;20080;-56
2021/04/13 09:35:31;;;;;;;7.05;5.55;;;;;;;7.70;77.23;97415.13;5031171;28;20072;-57
2021/04/13 09:38:07;;;;;;;6.38;5.45;;;;;;;7.67;75.38;97406.59;5043195;28;20076;-51
2021/04/13 09:40:39;;;;;;;5.10;4.60;;;;;;;8.34;62.99;97404.63;5025059;28;20068;-52
2021/04/13 09:43:38;;;;;;;8.05;6.18;;;;;;;8.86;68.40;97400.09;5037345;28;20080;-52
2021/04/13 09:46:20;;;;;;;10.27;7.15;;;;;;;9.47;79.95;97390.34;5014672;28;20532;-51
2021/04/13 09:49:02;;;;;;;8.68;6.60;;;;;;;9.58;69.89;97389.53;5025048;28;20099;-51
2021/04/13 09:51:52;;;;;;;6.45;4.82;;;;;;;8.78;88.91;97388.34;5028586;28;20114;-52
2021/04/13 09:54:30;;;;;;;6.40;4.93;;;;;;;8.92;74.43;97387.34;5036492;28;21495;-53
2021/04/13 09:57:33;;;;;;;6.72;5.60;;;;;;;8.82;75.76;97375.81;5042650;28;20064;-47
2021/04/13 10:00:20;;;;;;;6.85;5.80;;;;;;;9.12;67.41;97388.53;5007110;28;20099;-49
2021/04/13 10:03:12;;;;;;;5.78;5.13;;;;;;;9.80;55.44;97375.56;5019606;28;20069;-58
2021/04/13 10:05:42;;;;;;;7.40;6.00;;;;;;;10.26;56.81;97374.69;5019895;28;20466;-50
2021/04/13 10:08:19;;;;;;;8.07;6.18;;;;;;;10.32;54.14;97369.75;5044603;28;20523;-49
2021/04/13 10:10:57;;;;;;;7.68;6.07;;;;;;;9.53;60.61;97374.06;5022305;28;20486;-49
2021/04/13 10:14:13;;;;;;;5.10;4.45;;;;;;;8.53;72.02;97383.16;5031035;28;20064;-52
2021/04/13 10:16:46;;;;;;;6.60;5.32;;;;;;;8.18;74.49;97382.97;5023090;28;20132;-52
2021/04/13 10:19:39;;;;;;;5.80;5.20;;;;;;;7.75;73.00;97384.16;5039023;28;20068;-55
2021/04/13 10:22:33;;;;;;;6.68;5.30;;;;;;;7.88;71.72;97380.69;5032338;28;20518;-50
2021/04/13 10:25:30;;;;;;;7.88;6.22;;;;;;;8.03;70.18;97377.84;5027126;28;20523;-55
2021/04/13 10:28:20;;;;;;;7.20;6.35;;;;;;;8.02;69.23;97372.72;5026142;28;20088;-53
2021/04/13 10:31:07;;;;;;;5.63;5.07;;;;;;;7.84;70.36;97374.78;5028342;28;20084;-55
2021/04/13 10:34:04;;;;;;;6.63;5.93;;;;;;;7.90;71.82;97369.13;5040665;28;20069;-58
2021/04/13 10:37:03;;;;;;;7.10;6.07;;;;;;;8.40;73.78;97364.81;5023581;28;20722;-56
2021/04/13 10:39:44;;;;;;;7.07;5.82;;;;;;;8.50;73.37;97355.31;5032885;28;20531;-49
2021/04/13 10:42:48;;;;;;;8.02;6.25;;;;;;;8.82;81.43;97354.78;5026013;28;20336;-51
2021/04/13 10:45:37;;;;;;;8.30;6.78;;;;;;;8.99;82.92;97356.19;4960181;28;20444;-48
2021/04/13 10:48:43;;;;;;;7.60;6.80;;;;;;;9.32;91.37;97344.91;5031146;28;20518;-54
2021/04/13 10:51:57;;;;;;;6.70;5.63;;;;;;;9.26;84.62;97346.25;5026336;28;20073;-49
2021/04/13 10:55:06;;;;;;;5.38;4.70;;;;;;;9.96;52.00;97337.38;5029636;28;20581;-51
2021/04/13 10:58:18;;;;;;;7.00;5.70;;;;;;;9.62;61.71;97339.13;5034678;28;20095;-51
2021/04/13 11:00:59;;;;;;;7.22;5.60;;;;;;;9.77;71.35;97334.47;4966048;28;20668;-53
2021/04/13 11:03:59;;;;;;;6.13;4.90;;;;;;;9.36;62.17;97340.25;5032968;28;20533;-52
2021/04/13 11:06:51;;;;;;;7.88;5.85;;;;;;;9.17;74.43;97330.28;5027641;28;20072;-49
2021/04/13 11:09:40;;;;;;;7.28;5.60;;;;;;;9.89;65.55;97325.66;5024684;28;20062;-54
2021/04/13 11:12:24;;;;;;;5.85;5.25;;;;;;;10.19;56.32;97314.50;5032466;28;20572;-51
2021/04/13 11:15:18;;;;;;;7.00;5.57;;;;;;;10.78;57.13;97310.69;5038288;28;20056;-53
2021/04/13 11:17:58;;;;;;;5.93;4.65;;;;;;;10.06;65.60;97324.34;5021951;28;20069;-54
2021/04/13 11:21:17;;;;;;;4.90;4.40;;;;;;;9.85;50.54;97318.94;5032517;28;20076;-57
2021/04/13 11:24:13;;;;;;;4.85;4.13;;;;;;;10.15;45.68;97314.84;5014562;28;20448;-57
2021/04/13 11:27:19;;;;;;;5.72;4.72;;;;;;;10.96;46.57;97312.81;5038382;28;20064;-55
2021/04/13 11:30:16;;;;;;;4.82;4.32;;;;;;;10.53;58.71;97303.94;5036051;28;20068;-55
2021/04/13 11:33:17;;;;;;;4.88;4.22;;;;;;;10.60;45.07;97306.94;5026736;28;20056;-55
2021/04/13 11:35:46;;;;;;;5.13;4.63;;;;;;;11.11;45.94;97303.59;5017296;28;20068;-52
2021/04/13 11:38:50;;;;;;;5.85;5.30;;;;;;;10.48;53.64;97310.53;5036178;28;20469;-57
2021/04/13 11:41:25;;;;;;;4.75;4.10;;;;;;;10.28;47.85;97301.56;5036585;28;20068;-51
2021/04/13 11:43:57;;;;;;;4.43;3.60;;;;;;;9.42;46.67;97316.13;5021677;28;20072;-56
2021/04/13 11:46:31;;;;;;;4.93;4.30;;;;;;;9.69;56.59;97307.91;5034154;28;20074;-48
2021/04/13 11:49:03;;;;;;;4.75;4.20;;;;;;;9.98;49.20;97310.94;5036137;28;20087;-51
2021/04/13 11:51:35;;;;;;;5.47;4.70;;;;;;;9.21;79.45;97306.25;5028113;28;20091;-54
2021/04/13 11:54:38;;;;;;;5.55;4.55;;;;;;;8.75;87.19;97308.84;5031524;28;20468;-53
2021/04/13 11:57:12;;;;;;;5.32;4.40;;;;;;;8.24;84.00;97317.69;5033621;28;20590;-53
2021/04/13 11:59:41;;;;;;;5.18;4.68;;;;;;;8.43;91.83;97319.91;5023231;28;20069;-54
2021/04/13 12:02:22;;;;;;;5.03;4.20;;;;;;;8.29;93.84;97317.38;5025011;28;20088;-53
2021/04/13 12:04:53;;;;;;;5.93;5.25;;;;;;;8.38;92.40;97321.16;5026053;28;20132;-53
2021/04/13 12:07:43;;;;;;;6.13;5.43;;;;;;;8.18;100.00;97312.88;5036833;28;20064;-50
2021/04/13 12:10:13;;;;;;;5.13;4.47;;;;;;;8.26;98.09;97317.63;5023012;28;20451;-53